createdAt,value
2017-11-08T00:00:12.198Z,26.60
2017-11-08T00:01:12.195Z,26.50
2017-11-08T00:02:12.183Z,27.30
2017-11-08T00:03:12.173Z,26.80
2017-11-08T00:04:12.166Z,26.90
2017-11-08T00:05:12.174Z,26.60
2017-11-08T00:06:12.145Z,26.30
2017-11-08T00:07:12.139Z,27.90
2017-11-08T00:08:12.124Z,27.50
2017-11-08T00:09:12.115Z,27.50
2017-11-08T00:10:12.106Z,28.30
2017-11-08T00:11:12.117Z,27.30
2017-11-08T00:12:12.083Z,26.70
2017-11-08T00:13:12.070Z,26.50
2017-11-08T00:14:12.061Z,26.00
2017-11-08T00:15:12.051Z,26.80
2017-11-08T00:16:12.042Z,27.00
2017-11-08T00:17:12.044Z,26.20
2017-11-08T00:18:12.017Z,26.30
2017-11-08T00:19:12.027Z,27.00
2017-11-08T00:20:12.008Z,25.80
2017-11-08T00:21:11.996Z,26.40
2017-11-08T00:22:12.824Z,26.10
2017-11-08T00:23:11.974Z,25.70
2017-11-08T00:24:11.988Z,25.30
2017-11-08T00:25:11.954Z,26.50
2017-11-08T00:26:11.945Z,26.30
2017-11-08T00:27:11.935Z,27.00
2017-11-08T00:28:11.917Z,26.80
2017-11-08T00:29:11.909Z,26.30
2017-11-08T00:30:11.907Z,25.50
2017-11-08T00:31:11.880Z,26.20
2017-11-08T00:32:11.877Z,26.40
2017-11-08T00:33:11.867Z,26.20
2017-11-08T00:34:12.826Z,27.20
2017-11-08T00:35:11.845Z,27.00
2017-11-08T00:36:11.840Z,27.00
2017-11-08T00:37:11.829Z,26.20
2017-11-08T00:38:11.817Z,27.00
2017-11-08T00:39:11.808Z,27.30
2017-11-08T00:40:11.811Z,26.40
2017-11-08T00:41:11.794Z,26.30
2017-11-08T00:42:11.777Z,27.20
2017-11-08T00:43:11.765Z,26.50
2017-11-08T00:44:11.770Z,27.10
2017-11-08T00:45:11.744Z,26.30
2017-11-08T00:46:11.747Z,26.70
2017-11-08T00:47:11.727Z,26.50
2017-11-08T00:48:11.714Z,25.90
2017-11-08T00:49:11.702Z,26.90
2017-11-08T00:50:11.689Z,26.00
2017-11-08T00:51:11.683Z,27.70
2017-11-08T00:52:12.337Z,26.40
2017-11-08T00:53:11.671Z,25.40
2017-11-08T00:54:11.660Z,25.80
2017-11-08T00:55:11.643Z,26.80
2017-11-08T00:56:11.636Z,25.50
2017-11-08T00:57:11.622Z,26.90
2017-11-08T00:58:14.336Z,26.80
2017-11-08T00:59:11.616Z,26.60
2017-11-08T01:00:11.590Z,26.80
2017-11-08T01:01:11.588Z,26.20
2017-11-08T01:02:11.570Z,25.90
2017-11-08T01:03:11.558Z,26.60
2017-11-08T01:04:12.338Z,25.60
2017-11-08T01:05:11.542Z,26.30
2017-11-08T01:06:11.546Z,26.00
2017-11-08T01:07:11.517Z,26.00
2017-11-08T01:08:11.511Z,25.50
2017-11-08T01:09:11.502Z,25.70
2017-11-08T01:10:11.487Z,25.80
2017-11-08T01:11:12.343Z,26.50
2017-11-08T01:12:11.468Z,26.10
2017-11-08T01:13:11.457Z,26.60
2017-11-08T01:14:11.453Z,27.30
2017-11-08T01:15:11.434Z,26.30
2017-11-08T01:16:11.436Z,26.10
2017-11-08T01:17:11.420Z,25.80
2017-11-08T01:18:11.402Z,26.60
2017-11-08T01:19:11.400Z,25.10
2017-11-08T01:20:11.396Z,27.10
2017-11-08T01:21:11.379Z,25.50
2017-11-08T01:22:11.389Z,27.20
2017-11-08T01:23:11.360Z,25.90
2017-11-08T01:24:11.347Z,26.60
2017-11-08T01:25:11.361Z,25.60
2017-11-08T01:26:11.324Z,26.30
2017-11-08T01:27:11.316Z,26.80
2017-11-08T01:28:11.304Z,26.70
2017-11-08T01:29:11.296Z,25.80
2017-11-08T01:30:11.298Z,25.90
2017-11-08T01:31:11.276Z,26.60
2017-11-08T01:32:11.267Z,26.40
2017-11-08T01:33:11.259Z,26.10
2017-11-08T01:34:11.853Z,26.30
2017-11-08T01:35:11.236Z,27.70
2017-11-08T01:36:11.222Z,27.90
2017-11-08T01:37:11.216Z,26.40
2017-11-08T01:38:11.204Z,27.10
2017-11-08T01:39:11.212Z,27.30
2017-11-08T01:40:11.857Z,27.30
2017-11-08T01:41:11.180Z,27.20
2017-11-08T01:42:11.160Z,27.50
2017-11-08T01:43:11.153Z,26.70
2017-11-08T01:44:11.141Z,26.50
2017-11-08T01:45:11.133Z,26.40
2017-11-08T01:46:11.120Z,27.30
2017-11-08T01:47:11.111Z,26.30
2017-11-08T01:48:11.103Z,27.50
2017-11-08T01:49:11.093Z,27.90
2017-11-08T01:50:11.085Z,26.70
2017-11-08T01:51:11.078Z,26.50
2017-11-08T01:52:11.060Z,27.00
2017-11-08T01:53:11.050Z,27.50
2017-11-08T01:54:11.044Z,28.10
2017-11-08T01:55:11.032Z,26.30
2017-11-08T01:56:11.031Z,27.10
2017-11-08T01:57:11.021Z,26.70
2017-11-08T01:58:10.989Z,26.60
2017-11-08T01:59:10.980Z,25.70
2017-11-08T02:00:10.982Z,28.30
2017-11-08T02:01:10.967Z,26.00
2017-11-08T02:02:10.955Z,27.70
2017-11-08T02:03:10.951Z,25.70
2017-11-08T02:04:10.933Z,26.60
2017-11-08T02:05:10.927Z,27.60
2017-11-08T02:06:10.917Z,26.00
2017-11-08T02:07:10.913Z,26.60
2017-11-08T02:08:10.896Z,26.20
2017-11-08T02:09:10.892Z,25.70
2017-11-08T02:10:10.875Z,26.90
2017-11-08T02:11:10.868Z,26.10
2017-11-08T02:12:10.857Z,24.90
2017-11-08T02:13:10.862Z,26.80
2017-11-08T02:14:10.834Z,26.40
2017-11-08T02:15:10.821Z,26.00
2017-11-08T02:16:10.816Z,27.50
2017-11-08T02:17:10.806Z,26.50
2017-11-08T02:18:10.794Z,26.60
2017-11-08T02:19:10.786Z,25.80
2017-11-08T02:20:10.785Z,26.70
2017-11-08T02:21:10.764Z,25.50
2017-11-08T02:22:10.750Z,27.30
2017-11-08T02:23:10.742Z,27.40
2017-11-08T02:24:10.729Z,26.90
2017-11-08T02:25:10.720Z,26.70
2017-11-08T02:26:10.711Z,25.60
2017-11-08T02:27:11.368Z,26.80
2017-11-08T02:28:10.695Z,27.50
2017-11-08T02:29:10.683Z,26.20
2017-11-08T02:30:10.674Z,25.30
2017-11-08T02:31:10.663Z,25.40
2017-11-08T02:32:10.670Z,25.90
2017-11-08T02:33:10.641Z,25.70
2017-11-08T02:34:10.631Z,25.80
2017-11-08T02:35:10.621Z,26.90
2017-11-08T02:36:10.630Z,26.10
2017-11-08T02:37:10.598Z,25.90
2017-11-08T02:38:10.589Z,25.50
2017-11-08T02:39:10.578Z,27.20
2017-11-08T02:40:10.569Z,26.70
2017-11-08T02:41:10.561Z,26.80
2017-11-08T02:42:10.548Z,26.10
2017-11-08T02:43:10.537Z,26.00
2017-11-08T02:44:10.529Z,26.30
2017-11-08T02:45:10.520Z,26.50
2017-11-08T02:46:10.513Z,25.20
2017-11-08T02:47:10.499Z,25.90
2017-11-08T02:48:10.489Z,26.90
2017-11-08T02:49:10.474Z,25.30
2017-11-08T02:50:10.468Z,27.20
2017-11-08T02:51:10.456Z,26.60
2017-11-08T02:52:10.443Z,27.00
2017-11-08T02:53:10.452Z,26.80
2017-11-08T02:54:10.424Z,27.20
2017-11-08T02:55:10.413Z,25.20
2017-11-08T02:56:10.418Z,27.50
2017-11-08T02:57:11.375Z,28.10
2017-11-08T02:58:10.388Z,26.60
2017-11-08T02:59:10.373Z,25.50
2017-11-08T03:00:10.368Z,27.20
2017-11-08T03:01:10.351Z,25.60
2017-11-08T03:02:10.345Z,26.30
2017-11-08T03:03:10.337Z,26.50
2017-11-08T03:04:10.325Z,26.10
2017-11-08T03:05:10.317Z,27.40
2017-11-08T03:06:10.309Z,26.10
2017-11-08T03:07:10.293Z,27.40
2017-11-08T03:08:10.880Z,26.70
2017-11-08T03:09:10.269Z,28.30
2017-11-08T03:10:10.264Z,27.00
2017-11-08T03:11:10.249Z,26.70
2017-11-08T03:12:10.239Z,26.40
2017-11-08T03:13:10.229Z,26.50
2017-11-08T03:14:10.884Z,26.60
2017-11-08T03:15:10.212Z,26.60
2017-11-08T03:16:10.201Z,26.80
2017-11-08T03:17:10.188Z,27.20
2017-11-08T03:18:10.179Z,26.90
2017-11-08T03:19:12.886Z,26.40
2017-11-08T03:20:10.153Z,27.70
2017-11-08T03:21:10.145Z,26.90
2017-11-08T03:22:10.136Z,27.40
2017-11-08T03:23:10.124Z,26.40
2017-11-08T03:24:10.120Z,27.20
2017-11-08T03:25:10.115Z,27.10
2017-11-08T03:26:10.099Z,26.70
2017-11-08T03:27:10.085Z,27.40
2017-11-08T03:28:10.084Z,27.10
2017-11-08T03:29:10.068Z,26.60
2017-11-08T03:30:10.057Z,26.90
2017-11-08T03:31:10.893Z,27.60
2017-11-08T03:32:10.046Z,26.30
2017-11-08T03:33:10.889Z,27.30
2017-11-08T03:34:10.010Z,27.50
2017-11-08T03:35:10.003Z,28.20
2017-11-08T03:36:10.007Z,27.60
2017-11-08T03:37:09.987Z,30.70
2017-11-08T03:38:09.972Z,30.60
2017-11-08T03:39:09.978Z,30.80
2017-11-08T03:40:09.954Z,31.10
2017-11-08T03:41:09.944Z,30.40
2017-11-08T03:42:09.934Z,28.40
2017-11-08T03:43:09.918Z,27.80
2017-11-08T03:44:10.896Z,26.60
2017-11-08T03:45:09.902Z,26.50
2017-11-08T03:46:09.889Z,25.80
2017-11-08T03:47:09.879Z,26.00
2017-11-08T03:48:09.867Z,27.00
2017-11-08T03:49:10.393Z,27.50
2017-11-08T03:50:09.848Z,26.20
2017-11-08T03:51:09.839Z,26.00
2017-11-08T03:52:09.834Z,26.60
2017-11-08T03:53:09.820Z,25.60
2017-11-08T03:54:09.810Z,26.90
2017-11-08T03:55:09.804Z,26.50
2017-11-08T03:56:10.395Z,29.60
2017-11-08T03:57:09.779Z,30.60
2017-11-08T03:58:09.781Z,31.00
2017-11-08T03:59:09.755Z,30.80
2017-11-08T04:00:09.749Z,33.30
2017-11-08T04:01:09.744Z,36.00
2017-11-08T04:02:09.724Z,36.60
2017-11-08T04:03:09.717Z,35.60
2017-11-08T04:04:09.727Z,31.70
2017-11-08T04:05:09.695Z,33.90
2017-11-08T04:06:09.687Z,36.80
2017-11-08T04:07:09.682Z,30.70
2017-11-08T04:08:09.666Z,30.60
2017-11-08T04:09:09.653Z,30.40
2017-11-08T04:10:09.640Z,30.60
2017-11-08T04:11:09.633Z,28.20
2017-11-08T04:12:10.405Z,29.00
2017-11-08T04:13:09.618Z,27.40
2017-11-08T04:14:09.605Z,27.80
2017-11-08T04:15:09.596Z,27.50
2017-11-08T04:16:09.581Z,27.20
2017-11-08T04:17:09.575Z,26.70
2017-11-08T04:18:09.565Z,27.10
2017-11-08T04:19:09.555Z,28.60
2017-11-08T04:20:09.542Z,27.30
2017-11-08T04:21:09.531Z,27.40
2017-11-08T04:22:09.522Z,28.90
2017-11-08T04:23:09.513Z,28.80
2017-11-08T04:24:09.524Z,30.40
2017-11-08T04:25:09.499Z,32.10
2017-11-08T04:26:09.486Z,33.00
2017-11-08T04:27:09.469Z,31.10
2017-11-08T04:28:09.457Z,32.50
2017-11-08T04:29:09.454Z,30.90
2017-11-08T04:30:09.437Z,30.40
2017-11-08T04:31:09.430Z,29.70
2017-11-08T04:32:09.426Z,29.70
2017-11-08T04:33:09.407Z,29.80
2017-11-08T04:34:09.395Z,29.90
2017-11-08T04:35:09.379Z,29.80
2017-11-08T04:36:09.381Z,29.70
2017-11-08T04:37:09.369Z,29.50
2017-11-08T04:38:09.367Z,29.90
2017-11-08T04:39:09.350Z,29.70
2017-11-08T04:40:09.338Z,29.70
2017-11-08T04:41:09.328Z,30.10
2017-11-08T04:42:09.320Z,29.70
2017-11-08T04:43:09.309Z,28.60
2017-11-08T04:44:09.913Z,30.10
2017-11-08T04:45:09.299Z,28.90
2017-11-08T04:46:09.274Z,30.40
2017-11-08T04:47:09.264Z,30.30
2017-11-08T04:48:09.261Z,30.00
2017-11-08T04:49:09.243Z,29.50
2017-11-08T04:50:09.910Z,30.10
2017-11-08T04:51:09.224Z,29.00
2017-11-08T04:52:09.217Z,29.40
2017-11-08T04:53:09.207Z,29.10
2017-11-08T04:54:09.206Z,29.60
2017-11-08T04:55:09.186Z,29.70
2017-11-08T04:56:09.177Z,30.60
2017-11-08T04:57:09.171Z,29.70
2017-11-08T04:58:09.155Z,29.60
2017-11-08T04:59:09.159Z,29.90
2017-11-08T05:00:09.148Z,29.60
2017-11-08T05:01:09.125Z,30.50
2017-11-08T05:02:09.113Z,29.30
2017-11-08T05:03:09.103Z,29.60
2017-11-08T05:04:09.093Z,29.10
2017-11-08T05:05:09.082Z,31.20
2017-11-08T05:06:09.110Z,30.00
2017-11-08T05:07:09.060Z,29.00
2017-11-08T05:08:09.922Z,30.40
2017-11-08T05:09:09.047Z,30.40
2017-11-08T05:10:09.033Z,30.70
2017-11-08T05:11:09.018Z,31.10
2017-11-08T05:12:09.015Z,31.30
2017-11-08T05:13:09.006Z,31.80
2017-11-08T05:14:09.931Z,32.90
2017-11-08T05:15:08.986Z,31.00
2017-11-08T05:16:08.973Z,31.50
2017-11-08T05:17:08.992Z,30.80
2017-11-08T05:18:08.949Z,30.40
2017-11-08T05:19:08.942Z,32.00
2017-11-08T05:20:08.925Z,34.40
2017-11-08T05:21:08.925Z,34.00
2017-11-08T05:22:08.915Z,34.50
2017-11-08T05:23:09.434Z,35.20
2017-11-08T05:24:08.895Z,35.90
2017-11-08T05:25:08.881Z,34.70
2017-11-08T05:26:09.451Z,32.60
2017-11-08T05:27:08.877Z,32.40
2017-11-08T05:28:08.849Z,31.10
2017-11-08T05:29:08.839Z,32.80
2017-11-08T05:30:08.827Z,31.80
2017-11-08T05:31:08.814Z,30.50
2017-11-08T05:32:08.811Z,31.20
2017-11-08T05:33:08.804Z,32.60
2017-11-08T05:34:08.794Z,37.50
2017-11-08T05:35:08.783Z,33.50
2017-11-08T05:36:08.776Z,31.50
2017-11-08T05:37:08.766Z,30.40
2017-11-08T05:38:08.767Z,31.70
2017-11-08T05:39:08.749Z,30.80
2017-11-08T05:40:08.734Z,31.70
2017-11-08T05:41:08.724Z,31.10
2017-11-08T05:42:08.731Z,32.20
2017-11-08T05:43:09.442Z,30.70
2017-11-08T05:44:08.692Z,30.20
2017-11-08T05:45:08.686Z,31.80
2017-11-08T05:46:08.688Z,31.50
2017-11-08T05:47:08.664Z,31.70
2017-11-08T05:48:08.662Z,31.60
2017-11-08T05:49:08.636Z,30.60
2017-11-08T05:50:08.634Z,31.00
2017-11-08T05:51:08.623Z,30.50
2017-11-08T05:52:08.613Z,29.40
2017-11-08T05:53:08.604Z,29.10
2017-11-08T05:54:08.591Z,29.90
2017-11-08T05:55:08.583Z,30.50
2017-11-08T05:56:08.584Z,30.30
2017-11-08T05:57:08.556Z,30.80
2017-11-08T05:58:08.548Z,31.70
2017-11-08T05:59:09.442Z,31.20
2017-11-08T06:00:08.527Z,31.40
2017-11-08T06:01:09.665Z,31.00
2017-11-08T06:02:08.505Z,32.40
2017-11-08T06:03:08.498Z,32.50
2017-11-08T06:04:08.492Z,33.50
2017-11-08T06:05:08.482Z,32.40
2017-11-08T06:06:08.472Z,31.70
2017-11-08T06:07:08.455Z,33.10
2017-11-08T06:08:08.450Z,32.30
2017-11-08T06:09:08.438Z,33.00
2017-11-08T06:10:08.498Z,32.30
2017-11-08T06:11:08.422Z,33.20
2017-11-08T06:12:08.410Z,32.90
2017-11-08T06:13:08.403Z,33.80
2017-11-08T06:14:08.389Z,32.20
2017-11-08T06:15:08.373Z,32.70
2017-11-08T06:16:08.374Z,33.70
2017-11-08T06:17:08.949Z,33.40
2017-11-08T06:18:08.357Z,32.10
2017-11-08T06:19:08.338Z,34.80
2017-11-08T06:20:08.334Z,33.90
2017-11-08T06:21:08.325Z,34.00
2017-11-08T06:22:08.311Z,36.00
2017-11-08T06:23:08.949Z,35.00
2017-11-08T06:24:08.287Z,34.60
2017-11-08T06:25:08.282Z,34.80
2017-11-08T06:26:08.272Z,35.00
2017-11-08T06:27:08.276Z,34.60
2017-11-08T06:28:08.250Z,35.50
2017-11-08T06:29:08.238Z,36.40
2017-11-08T06:30:08.228Z,36.60
2017-11-08T06:31:08.216Z,36.40
2017-11-08T06:32:08.206Z,36.10
2017-11-08T06:33:08.202Z,36.20
2017-11-08T06:34:08.193Z,35.80
2017-11-08T06:35:08.182Z,35.40
2017-11-08T06:36:08.168Z,35.80
2017-11-08T06:37:08.957Z,36.30
2017-11-08T06:38:08.154Z,36.10
2017-11-08T06:39:08.141Z,35.90
2017-11-08T06:40:08.955Z,35.00
2017-11-08T06:41:08.962Z,34.30
2017-11-08T06:42:08.110Z,35.30
2017-11-08T06:43:08.103Z,35.10
2017-11-08T06:44:08.086Z,36.20
2017-11-08T06:45:08.085Z,36.40
2017-11-08T06:46:08.073Z,35.90
2017-11-08T06:47:09.961Z,35.90
2017-11-08T06:48:08.057Z,36.90
2017-11-08T06:49:08.051Z,36.90
2017-11-08T06:50:08.041Z,37.70
2017-11-08T06:51:08.026Z,37.40
2017-11-08T06:52:08.014Z,36.00
2017-11-08T06:53:08.000Z,37.90
2017-11-08T06:54:07.992Z,37.80
2017-11-08T06:55:07.983Z,38.50
2017-11-08T06:56:07.987Z,39.80
2017-11-08T06:57:07.957Z,39.60
2017-11-08T06:58:07.947Z,41.00
2017-11-08T06:59:07.944Z,40.30
2017-11-08T07:00:07.937Z,38.40
2017-11-08T07:01:07.922Z,38.80
2017-11-08T07:02:07.919Z,39.40
2017-11-08T07:03:07.908Z,40.10
2017-11-08T07:04:07.889Z,39.60
2017-11-08T07:05:07.888Z,37.80
2017-11-08T07:06:07.871Z,39.70
2017-11-08T07:07:07.861Z,40.00
2017-11-08T07:08:07.849Z,40.20
2017-11-08T07:09:07.839Z,38.30
2017-11-08T07:10:07.827Z,37.90
2017-11-08T07:11:08.462Z,38.60
2017-11-08T07:12:07.814Z,37.70
2017-11-08T07:13:07.800Z,39.20
2017-11-08T07:14:07.789Z,39.30
2017-11-08T07:15:07.788Z,38.90
2017-11-08T07:16:07.777Z,38.60
2017-11-08T07:17:07.768Z,38.50
2017-11-08T07:18:07.762Z,38.60
2017-11-08T07:19:07.740Z,37.70
2017-11-08T07:20:07.733Z,37.70
2017-11-08T07:21:07.724Z,39.30
2017-11-08T07:22:07.710Z,38.50
2017-11-08T07:23:07.715Z,38.60
2017-11-08T07:24:07.691Z,38.50
2017-11-08T07:25:07.685Z,37.20
2017-11-08T07:26:07.668Z,38.20
2017-11-08T07:27:07.658Z,38.90
2017-11-08T07:28:07.651Z,42.40
2017-11-08T07:29:07.646Z,49.40
2017-11-08T07:30:07.629Z,52.30
2017-11-08T07:31:08.480Z,59.50
2017-11-08T07:32:07.624Z,56.90
2017-11-08T07:33:07.606Z,60.90
2017-11-08T07:34:07.593Z,64.60
2017-11-08T07:35:07.588Z,64.70
2017-11-08T07:36:07.572Z,59.80
2017-11-08T07:37:07.561Z,51.90
2017-11-08T07:38:07.549Z,49.70
2017-11-08T07:39:07.542Z,43.90
2017-11-08T07:40:07.551Z,41.40
2017-11-08T07:41:07.525Z,41.80
2017-11-08T07:42:07.516Z,39.00
2017-11-08T07:43:07.547Z,38.60
2017-11-08T07:44:07.498Z,39.60
2017-11-08T07:45:07.487Z,39.80
2017-11-08T07:46:07.491Z,39.80
2017-11-08T07:47:09.982Z,40.50
2017-11-08T07:48:07.451Z,39.70
2017-11-08T07:49:07.445Z,37.50
2017-11-08T07:50:07.432Z,38.20
2017-11-08T07:51:07.427Z,38.30
2017-11-08T07:52:07.421Z,39.10
2017-11-08T07:53:07.410Z,41.80
2017-11-08T07:54:07.435Z,43.70
2017-11-08T07:55:07.386Z,43.90
2017-11-08T07:56:07.982Z,47.30
2017-11-08T07:57:07.365Z,48.20
2017-11-08T07:58:07.355Z,47.20
2017-11-08T07:59:07.347Z,48.80
2017-11-08T08:00:07.342Z,48.80
2017-11-08T08:01:07.336Z,49.70
2017-11-08T08:02:07.314Z,46.90
2017-11-08T08:03:07.311Z,44.60
2017-11-08T08:04:07.294Z,44.30
2017-11-08T08:05:07.284Z,44.10
2017-11-08T08:06:07.277Z,42.00
2017-11-08T08:07:07.274Z,40.80
2017-11-08T08:08:07.260Z,39.90
2017-11-08T08:09:07.447Z,38.10
2017-11-08T08:10:07.254Z,36.00
2017-11-08T08:11:08.161Z,37.20
2017-11-08T08:12:07.266Z,36.30
2017-11-08T08:13:08.175Z,36.10
2017-11-08T08:14:07.227Z,35.90
2017-11-08T08:15:07.505Z,36.70
2017-11-08T08:16:07.179Z,37.00
2017-11-08T08:17:07.331Z,35.50
2017-11-08T08:18:07.734Z,36.10
2017-11-08T08:19:07.157Z,38.10
2017-11-08T08:20:07.143Z,38.40
2017-11-08T08:21:07.218Z,38.00
2017-11-08T08:22:07.169Z,40.10
2017-11-08T08:23:07.116Z,39.90
2017-11-08T08:24:07.118Z,40.30
2017-11-08T08:25:07.120Z,39.10
2017-11-08T08:26:07.089Z,38.60
2017-11-08T08:27:07.208Z,39.50
2017-11-08T08:28:07.085Z,39.60
2017-11-08T08:29:07.148Z,39.20
2017-11-08T08:30:07.084Z,39.90
2017-11-08T08:31:07.043Z,37.90
2017-11-08T08:32:07.082Z,37.80
2017-11-08T08:33:07.071Z,36.30
2017-11-08T08:34:07.017Z,38.40
2017-11-08T08:35:07.006Z,37.50
2017-11-08T08:36:07.002Z,37.30
2017-11-08T08:37:06.980Z,37.30
2017-11-08T08:38:06.966Z,37.40
2017-11-08T08:39:08.440Z,38.10
2017-11-08T08:40:06.954Z,38.20
2017-11-08T08:41:06.945Z,37.60
2017-11-08T08:42:07.305Z,37.50
2017-11-08T08:43:06.924Z,37.40
2017-11-08T08:44:06.919Z,36.40
2017-11-08T08:45:08.016Z,36.20
2017-11-08T08:46:07.124Z,36.90
2017-11-08T08:47:07.017Z,37.40
2017-11-08T08:48:06.891Z,37.80
2017-11-08T08:49:06.968Z,37.10
2017-11-08T08:50:07.035Z,37.30
2017-11-08T08:51:07.727Z,36.30
2017-11-08T08:52:06.839Z,36.40
2017-11-08T08:53:06.857Z,36.60
2017-11-08T08:54:06.817Z,36.60
2017-11-08T08:55:06.823Z,36.10
2017-11-08T08:56:06.802Z,36.50
2017-11-08T08:57:07.503Z,34.90
2017-11-08T08:58:07.972Z,38.70
2017-11-08T08:59:06.781Z,36.50
2017-11-08T09:00:07.340Z,36.80
2017-11-08T09:01:07.509Z,37.30
2017-11-08T09:02:06.915Z,38.00
2017-11-08T09:03:06.741Z,36.90
2017-11-08T09:04:07.553Z,37.20
2017-11-08T09:05:06.721Z,38.40
2017-11-08T09:06:06.712Z,37.90
2017-11-08T09:07:06.717Z,37.40
2017-11-08T09:08:07.225Z,37.80
2017-11-08T09:09:06.678Z,35.80
2017-11-08T09:10:06.668Z,36.90
2017-11-08T09:11:06.664Z,35.60
2017-11-08T09:12:06.652Z,36.10
2017-11-08T09:13:07.204Z,37.00
2017-11-08T09:14:06.638Z,37.00
2017-11-08T09:15:06.621Z,36.90
2017-11-08T09:16:06.620Z,35.70
2017-11-08T09:17:06.610Z,35.60
2017-11-08T09:18:07.293Z,34.60
2017-11-08T09:19:07.239Z,36.40
2017-11-08T09:20:06.592Z,34.70
2017-11-08T09:21:08.269Z,36.00
2017-11-08T09:22:06.571Z,34.60
2017-11-08T09:23:06.556Z,35.00
2017-11-08T09:24:06.978Z,36.60
2017-11-08T09:25:06.672Z,35.50
2017-11-08T09:26:06.533Z,34.80
2017-11-08T09:27:07.296Z,35.50
2017-11-08T09:28:06.573Z,34.80
2017-11-08T09:29:06.494Z,35.70
2017-11-08T09:30:07.482Z,35.70
2017-11-08T09:31:06.597Z,35.80
2017-11-08T09:32:07.663Z,36.60
2017-11-08T09:33:06.466Z,34.90
2017-11-08T09:34:06.461Z,36.10
2017-11-08T09:35:06.446Z,36.00
2017-11-08T09:36:07.362Z,35.30
2017-11-08T09:37:06.427Z,35.20
2017-11-08T09:38:06.736Z,35.90
2017-11-08T09:39:06.420Z,35.80
2017-11-08T09:40:07.813Z,35.40
2017-11-08T09:41:07.862Z,35.60
2017-11-08T09:42:06.423Z,35.20
2017-11-08T09:43:06.855Z,35.70
2017-11-08T09:44:06.363Z,36.90
2017-11-08T09:45:06.614Z,37.00
2017-11-08T09:46:06.391Z,36.60
2017-11-08T09:47:07.373Z,36.70
2017-11-08T09:48:06.804Z,36.60
2017-11-08T09:49:06.308Z,36.50
2017-11-08T09:50:06.308Z,37.20
2017-11-08T09:51:07.009Z,37.20
2017-11-08T09:52:06.303Z,37.40
2017-11-08T09:53:07.065Z,38.00
2017-11-08T09:54:06.274Z,37.60
2017-11-08T09:55:06.263Z,36.10
2017-11-08T09:56:06.259Z,37.30
2017-11-08T09:57:06.250Z,36.40
2017-11-08T09:58:06.250Z,37.00
2017-11-08T09:59:06.232Z,36.00
2017-11-08T10:00:06.225Z,37.70
2017-11-08T10:01:06.213Z,36.10
2017-11-08T10:02:06.205Z,36.50
2017-11-08T10:03:06.194Z,36.80
2017-11-08T10:04:07.057Z,35.50
2017-11-08T10:05:06.173Z,35.50
2017-11-08T10:06:06.166Z,35.30
2017-11-08T10:07:06.162Z,35.90
2017-11-08T10:08:06.198Z,36.50
2017-11-08T10:09:06.147Z,36.30
2017-11-08T10:10:07.031Z,37.10
2017-11-08T10:11:06.130Z,36.80
2017-11-08T10:12:07.036Z,35.40
2017-11-08T10:13:06.107Z,34.20
2017-11-08T10:14:06.132Z,36.70
2017-11-08T10:15:07.094Z,36.90
2017-11-08T10:16:06.081Z,36.10
2017-11-08T10:17:07.032Z,37.30
2017-11-08T10:18:06.063Z,37.40
2017-11-08T10:19:06.055Z,37.50
2017-11-08T10:20:06.040Z,36.20
2017-11-08T10:21:06.035Z,36.10
2017-11-08T10:22:06.024Z,36.20
2017-11-08T10:23:13.662Z,37.10
2017-11-08T10:25:00.478Z,37.30
2017-11-08T10:26:00.374Z,36.50
2017-11-08T10:27:54.756Z,36.50
2017-11-08T10:28:54.717Z,37.50
2017-11-08T10:30:49.111Z,36.10
2017-11-08T10:31:49.654Z,36.50
2017-11-08T10:33:43.480Z,37.60
2017-11-08T10:34:43.434Z,38.00
2017-11-08T10:36:37.815Z,39.50
2017-11-08T10:37:37.781Z,38.90
2017-11-08T10:39:33.207Z,38.40
2017-11-08T10:40:32.136Z,37.70
2017-11-08T10:43:27.946Z,40.10
2017-11-08T10:45:22.407Z,40.00
2017-11-08T10:46:22.297Z,40.20
2017-11-08T10:48:16.685Z,39.10
2017-11-08T10:49:16.655Z,39.00
2017-11-08T10:51:11.042Z,39.10
2017-11-08T10:52:11.013Z,39.20
2017-11-08T10:54:14.056Z,38.10
2017-11-08T10:55:05.361Z,38.10
2017-11-08T10:56:13.991Z,39.40
2017-11-08T10:58:08.369Z,39.50
2017-11-08T10:59:08.538Z,39.60
2017-11-08T11:00:55.132Z,39.50
2017-11-08T11:02:02.689Z,39.90
2017-11-08T11:03:48.515Z,40.40
2017-11-08T11:04:57.382Z,40.40
2017-11-08T11:06:50.463Z,38.40
2017-11-08T11:07:49.431Z,38.10
2017-11-08T11:09:36.168Z,40.60
2017-11-08T11:10:36.122Z,39.70
2017-11-08T11:11:36.122Z,40.80
2017-11-08T11:12:36.111Z,38.90
2017-11-08T11:13:36.100Z,41.50
2017-11-08T11:14:36.090Z,40.70
2017-11-08T11:15:36.084Z,41.30
2017-11-08T11:16:36.076Z,40.70
2017-11-08T11:17:36.721Z,41.90
2017-11-08T11:18:36.060Z,41.50
2017-11-08T11:19:36.051Z,40.90
2017-11-08T11:20:36.050Z,41.20
2017-11-08T11:21:36.032Z,41.40
2017-11-08T11:22:36.020Z,43.70
2017-11-08T11:23:36.734Z,41.20
2017-11-08T11:24:36.019Z,43.60
2017-11-08T11:25:35.997Z,43.10
2017-11-08T11:26:35.991Z,43.10
2017-11-08T11:27:36.724Z,44.40
2017-11-08T11:28:36.730Z,45.40
2017-11-08T11:29:35.962Z,44.90
2017-11-08T11:30:35.960Z,46.00
2017-11-08T11:31:35.950Z,44.50
2017-11-08T11:32:35.953Z,45.70
2017-11-08T11:33:38.736Z,43.50
2017-11-08T11:34:36.739Z,45.50
2017-11-08T11:35:35.917Z,46.70
2017-11-08T11:36:35.898Z,44.60
2017-11-08T11:37:35.900Z,45.00
2017-11-08T11:38:35.886Z,46.40
2017-11-08T11:39:35.895Z,46.00
2017-11-08T11:40:35.858Z,45.70
2017-11-08T11:41:35.854Z,46.80
2017-11-08T11:42:36.737Z,46.10
2017-11-08T11:43:35.840Z,46.40
2017-11-08T11:44:35.838Z,47.70
2017-11-08T11:45:36.738Z,47.30
2017-11-08T11:46:35.829Z,47.70
2017-11-08T11:47:35.809Z,48.40
2017-11-08T11:48:35.801Z,47.90
2017-11-08T11:49:35.819Z,48.60
2017-11-08T11:50:35.785Z,48.40
2017-11-08T11:51:35.782Z,48.20
2017-11-08T11:52:35.767Z,48.20
2017-11-08T11:53:35.752Z,48.60
2017-11-08T11:54:35.742Z,48.20
2017-11-08T11:55:35.745Z,49.90
2017-11-08T11:56:35.725Z,51.00
2017-11-08T11:57:35.722Z,51.90
2017-11-08T11:58:35.710Z,50.40
2017-11-08T11:59:35.705Z,52.30
2017-11-08T12:00:35.696Z,52.00
2017-11-08T12:01:35.689Z,52.40
2017-11-08T12:02:35.685Z,53.00
2017-11-08T12:03:35.667Z,53.30
2017-11-08T12:04:35.658Z,53.00
2017-11-08T12:05:35.654Z,53.90
2017-11-08T12:06:35.654Z,54.00
2017-11-08T12:07:35.664Z,53.20
2017-11-08T12:08:35.633Z,52.70
2017-11-08T12:09:35.611Z,51.90
2017-11-08T12:10:35.603Z,52.70
2017-11-08T12:11:35.594Z,52.30
2017-11-08T12:12:35.598Z,53.80
2017-11-08T12:13:35.582Z,52.30
2017-11-08T12:14:35.570Z,53.40
2017-11-08T12:15:35.569Z,53.80
2017-11-08T12:16:56.560Z,54.70
2017-11-08T12:17:42.258Z,54.00
2017-11-08T12:18:37.908Z,55.90
2017-11-08T12:19:35.527Z,53.80
2017-11-08T12:20:35.519Z,56.30
2017-11-08T12:21:36.263Z,55.80
2017-11-08T12:22:35.503Z,55.90
2017-11-08T12:23:35.497Z,57.30
2017-11-08T12:24:35.487Z,57.20
2017-11-08T12:25:35.476Z,58.40
2017-11-08T12:26:35.469Z,56.90
2017-11-08T12:27:35.462Z,57.10
2017-11-08T12:28:35.452Z,58.70
2017-11-08T12:29:35.444Z,56.40
2017-11-08T12:30:35.426Z,56.60
2017-11-08T12:31:35.423Z,56.80
2017-11-08T12:32:35.414Z,57.80
2017-11-08T12:33:35.413Z,56.80
2017-11-08T12:34:35.396Z,57.00
2017-11-08T12:35:50.272Z,56.00
2017-11-08T12:36:35.375Z,57.00
2017-11-08T12:37:35.361Z,58.90
2017-11-08T12:38:35.362Z,57.50
2017-11-08T12:39:35.353Z,58.70
2017-11-08T12:40:35.365Z,58.90
2017-11-08T12:41:35.330Z,60.40
2017-11-08T12:42:35.326Z,58.20
2017-11-08T12:43:35.318Z,58.00
2017-11-08T12:44:35.307Z,57.90
2017-11-08T12:45:35.295Z,56.80
2017-11-08T12:46:35.299Z,56.60
2017-11-08T12:47:35.279Z,57.80
2017-11-08T12:48:35.273Z,57.40
2017-11-08T12:49:35.259Z,58.20
2017-11-08T12:50:35.252Z,57.20
2017-11-08T12:51:35.245Z,57.40
2017-11-08T12:52:35.237Z,58.20
2017-11-08T12:53:35.223Z,59.80
2017-11-08T12:54:35.217Z,58.20
2017-11-08T12:55:35.785Z,57.70
2017-11-08T12:56:35.199Z,56.30
2017-11-08T12:57:35.191Z,59.20
2017-11-08T12:58:35.183Z,60.20
2017-11-08T12:59:35.173Z,58.10
2017-11-08T13:00:35.224Z,56.60
2017-11-08T13:01:35.156Z,59.70
2017-11-08T13:02:35.148Z,58.00
2017-11-08T13:03:35.133Z,59.70
2017-11-08T13:04:35.130Z,57.00
2017-11-08T13:05:35.782Z,57.70
2017-11-08T13:06:35.126Z,59.10
2017-11-08T13:07:35.250Z,59.90